Terminal Aerodrome Forecast
Issued by NWS Louisville, KY

Home | Current Version | Previous Version | Text Only | Print | Product List | Glossary On
Versions: 1 2 3 4 5 6 7 8 9 10 11 12 13 14 15 16 17 18 19 20 21 22 23 24 25 26 27 28 29 30
000
FTUS43 KLMK 262325
TAFSDF
TAF
KSDF 262325Z 2700/2806 25006KT P6SM VCTS SCT050CB BKN250
     FM270015 27020G33KT 4SM -TSRA BKN030CB
     FM270200 VRB06KT P6SM VCSH BKN035
     FM271400 20007KT 6SM -SHRA VCTS SCT025CB BKN100
     FM280000 10007G25KT 3SM SHRA VCTS BKN035CB=

USA.gov is the U.S. government's official web portal to all federal, state and local government web resources and services.